ANZ515 NZAA-NZCH
Flight info
| Callsign | ANZ515 |
|---|---|
| Flight time | 1h 4m |
| Altitude | 34000 |
| Route | IGBAT H384 NP H252 NS Y288 IPRAK |
| Aircraft | A320/M-SDE3FGHIRWY/LB1 |
Departure
| Time | 2026-05-06 19:59 |
|---|---|
| Airport | Auckland International Airport (NZAA) |
Arrival
| Time | 2026-05-06 21:03 |
|---|---|
| Airport | Christchurch International Airport (NZCH) |
| Time | Latitude | Longitude | Altitude | Speed | Heading |
|---|---|---|---|---|---|
| 2026-05-06 19:30 | -37.00700 | 174.79145 | 29 ft | 0 kts | 341° |
| 2026-05-06 19:46 | -37.00701 | 174.79146 | 28 ft | 2 kts | 341° |
| 2026-05-06 19:46 | -37.00726 | 174.79155 | 26 ft | 4 kts | 346° |
| 2026-05-06 19:46 | -37.00753 | 174.79163 | 28 ft | 4 kts | 339° |
| 2026-05-06 19:47 | -37.00770 | 174.79175 | 29 ft | 4 kts | 269° |
| 2026-05-06 19:47 | -37.00770 | 174.79180 | 30 ft | 0 kts | 251° |
| 2026-05-06 19:50 | -37.00771 | 174.79179 | 29 ft | 1 kts | 251° |
| 2026-05-06 19:50 | -37.00775 | 174.79161 | 28 ft | 3 kts | 251° |
| 2026-05-06 19:50 | -37.00786 | 174.79125 | 26 ft | 6 kts | 250° |
| 2026-05-06 19:50 | -37.00801 | 174.79070 | 25 ft | 8 kts | 250° |
| 2026-05-06 19:51 | -37.00821 | 174.78999 | 25 ft | 10 kts | 251° |
| 2026-05-06 19:51 | -37.00845 | 174.78911 | 25 ft | 12 kts | 251° |
| 2026-05-06 19:51 | -37.00863 | 174.78843 | 25 ft | 13 kts | 251° |
| 2026-05-06 19:51 | -37.00907 | 174.78685 | 25 ft | 16 kts | 251° |
| 2026-05-06 19:52 | -37.00932 | 174.78595 | 25 ft | 17 kts | 251° |
| 2026-05-06 19:52 | -37.00973 | 174.78446 | 27 ft | 19 kts | 251° |
| 2026-05-06 19:52 | -37.01005 | 174.78282 | 26 ft | 20 kts | 253° |
| 2026-05-06 19:52 | -37.01052 | 174.78110 | 26 ft | 22 kts | 252° |
| 2026-05-06 19:53 | -37.01104 | 174.77921 | 26 ft | 24 kts | 251° |
| 2026-05-06 19:53 | -37.01161 | 174.77744 | 27 ft | 16 kts | 220° |
| 2026-05-06 19:53 | -37.01260 | 174.77720 | 27 ft | 16 kts | 234° |
| 2026-05-06 19:53 | -37.01299 | 174.77586 | 28 ft | 17 kts | 251° |
| 2026-05-06 19:54 | -37.01340 | 174.77437 | 26 ft | 19 kts | 252° |
| 2026-05-06 19:54 | -37.01386 | 174.77272 | 28 ft | 21 kts | 251° |
| 2026-05-06 19:54 | -37.01433 | 174.77124 | 28 ft | 14 kts | 230° |
| 2026-05-06 19:54 | -37.01499 | 174.77099 | 26 ft | 0 kts | 188° |
| 2026-05-06 19:55 | -37.01509 | 174.77097 | 27 ft | 3 kts | 190° |
| 2026-05-06 19:55 | -37.01536 | 174.77091 | 29 ft | 5 kts | 190° |
| 2026-05-06 19:56 | -37.01577 | 174.77083 | 29 ft | 7 kts | 180° |
| 2026-05-06 19:56 | -37.01617 | 174.77122 | 27 ft | 8 kts | 102° |
| 2026-05-06 19:56 | -37.01601 | 174.77193 | 26 ft | 3 kts | 70° |
| 2026-05-06 19:56 | -37.01600 | 174.77196 | 26 ft | 0 kts | 70° |
| 2026-05-06 19:58 | -37.01594 | 174.77216 | 26 ft | 19 kts | 70° |
| 2026-05-06 19:58 | -37.01468 | 174.77673 | 28 ft | 89 kts | 71° |
| 2026-05-06 19:58 | -37.01204 | 174.78626 | 26 ft | 140 kts | 71° |
| 2026-05-06 19:58 | -37.00860 | 174.79877 | 366 ft | 153 kts | 71° |
| 2026-05-06 19:59 | -37.00539 | 174.81151 | 960 ft | 156 kts | 71° |
| 2026-05-06 19:59 | -37.00205 | 174.82458 | 1533 ft | 159 kts | 67° |
| 2026-05-06 19:59 | -36.99830 | 174.83802 | 1989 ft | 173 kts | 65° |
| 2026-05-06 19:59 | -36.99390 | 174.85300 | 2289 ft | 195 kts | 65° |
| 2026-05-06 20:00 | -36.98896 | 174.86961 | 2836 ft | 205 kts | 66° |
| 2026-05-06 20:00 | -36.98416 | 174.88650 | 3631 ft | 207 kts | 66° |
| 2026-05-06 20:00 | -36.98075 | 174.90421 | 4387 ft | 217 kts | 88° |
| 2026-05-06 20:00 | -36.98645 | 174.92205 | 5117 ft | 234 kts | 129° |
| 2026-05-06 20:01 | -37.00019 | 174.93359 | 5846 ft | 244 kts | 154° |
| 2026-05-06 20:01 | -37.01657 | 174.93935 | 6579 ft | 249 kts | 181° |
| 2026-05-06 20:01 | -37.03324 | 174.93427 | 7265 ft | 249 kts | 210° |
| 2026-05-06 20:01 | -37.04693 | 174.92139 | 7984 ft | 246 kts | 233° |
| 2026-05-06 20:02 | -37.05561 | 174.90319 | 8639 ft | 247 kts | 252° |
| 2026-05-06 20:02 | -37.06198 | 174.88222 | 9006 ft | 269 kts | 255° |
| 2026-05-06 20:02 | -37.06825 | 174.85926 | 9468 ft | 285 kts | 256° |
| 2026-05-06 20:02 | -37.07460 | 174.83543 | 10205 ft | 291 kts | 256° |
| 2026-05-06 20:03 | -37.08118 | 174.81083 | 10624 ft | 308 kts | 255° |
| 2026-05-06 20:03 | -37.08828 | 174.78444 | 10824 ft | 331 kts | 255° |
| 2026-05-06 20:03 | -37.09606 | 174.75620 | 10952 ft | 355 kts | 252° |
| 2026-05-06 20:03 | -37.10970 | 174.72947 | 11278 ft | 377 kts | 226° |
| 2026-05-06 20:04 | -37.13217 | 174.71189 | 11864 ft | 389 kts | 201° |
| 2026-05-06 20:04 | -37.15889 | 174.70506 | 12511 ft | 396 kts | 186° |
| 2026-05-06 20:04 | -37.18653 | 174.70404 | 13187 ft | 399 kts | 181° |
| 2026-05-06 20:04 | -37.21405 | 174.70445 | 13843 ft | 402 kts | 181° |
| 2026-05-06 20:05 | -37.24213 | 174.70381 | 14449 ft | 405 kts | 184° |
| 2026-05-06 20:05 | -37.27029 | 174.70114 | 15035 ft | 407 kts | 188° |
| 2026-05-06 20:05 | -37.29844 | 174.69653 | 15613 ft | 409 kts | 191° |
| 2026-05-06 20:05 | -37.32660 | 174.69062 | 16199 ft | 411 kts | 192° |
| 2026-05-06 20:06 | -37.35491 | 174.68412 | 16794 ft | 414 kts | 192° |
| 2026-05-06 20:06 | -37.38336 | 174.67753 | 17398 ft | 417 kts | 192° |
| 2026-05-06 20:06 | -37.41206 | 174.67109 | 18005 ft | 421 kts | 192° |
| 2026-05-06 20:06 | -37.44103 | 174.66490 | 18591 ft | 424 kts | 192° |
| 2026-05-06 20:07 | -37.47029 | 174.65893 | 19078 ft | 428 kts | 191° |
| 2026-05-06 20:07 | -37.49983 | 174.65305 | 19575 ft | 431 kts | 191° |
| 2026-05-06 20:07 | -37.52958 | 174.64712 | 20080 ft | 435 kts | 191° |
| 2026-05-06 20:07 | -37.55955 | 174.64114 | 20564 ft | 438 kts | 191° |
| 2026-05-06 20:08 | -37.58962 | 174.63445 | 21029 ft | 440 kts | 193° |
| 2026-05-06 20:08 | -37.61961 | 174.62614 | 21466 ft | 443 kts | 195° |
| 2026-05-06 20:08 | -37.64957 | 174.61662 | 21887 ft | 445 kts | 197° |
| 2026-05-06 20:08 | -37.67958 | 174.60649 | 22301 ft | 448 kts | 197° |
| 2026-05-06 20:09 | -37.70976 | 174.59625 | 22704 ft | 451 kts | 197° |
| 2026-05-06 20:09 | -37.73983 | 174.58630 | 23092 ft | 453 kts | 197° |
| 2026-05-06 20:09 | -37.77048 | 174.57644 | 23481 ft | 456 kts | 196° |
| 2026-05-06 20:09 | -37.80136 | 174.56676 | 23860 ft | 459 kts | 196° |
| 2026-05-06 20:10 | -37.83243 | 174.55712 | 24179 ft | 461 kts | 196° |
| 2026-05-06 20:10 | -37.86365 | 174.54751 | 24509 ft | 463 kts | 196° |
| 2026-05-06 20:10 | -37.89497 | 174.53784 | 24843 ft | 464 kts | 196° |
| 2026-05-06 20:10 | -37.92637 | 174.52810 | 25181 ft | 465 kts | 196° |
| 2026-05-06 20:11 | -37.95784 | 174.51821 | 25516 ft | 467 kts | 196° |
| 2026-05-06 20:11 | -37.98937 | 174.50825 | 25848 ft | 468 kts | 196° |
| 2026-05-06 20:11 | -38.02099 | 174.49828 | 26179 ft | 469 kts | 196° |
| 2026-05-06 20:11 | -38.05270 | 174.48833 | 26504 ft | 470 kts | 196° |
| 2026-05-06 20:12 | -38.08451 | 174.47831 | 26901 ft | 470 kts | 196° |
| 2026-05-06 20:12 | -38.11609 | 174.46834 | 27372 ft | 468 kts | 196° |
| 2026-05-06 20:12 | -38.14765 | 174.45841 | 27852 ft | 465 kts | 196° |
| 2026-05-06 20:12 | -38.17900 | 174.44858 | 28342 ft | 463 kts | 196° |
| 2026-05-06 20:13 | -38.21021 | 174.43877 | 28839 ft | 461 kts | 196° |
| 2026-05-06 20:13 | -38.24125 | 174.42894 | 29336 ft | 459 kts | 197° |
| 2026-05-06 20:13 | -38.27214 | 174.41909 | 29861 ft | 457 kts | 197° |
| 2026-05-06 20:13 | -38.30289 | 174.40933 | 30362 ft | 455 kts | 196° |
| 2026-05-06 20:14 | -38.33352 | 174.39966 | 30799 ft | 453 kts | 197° |
| 2026-05-06 20:14 | -38.36401 | 174.39002 | 31230 ft | 451 kts | 197° |
| 2026-05-06 20:14 | -38.39438 | 174.38040 | 31656 ft | 449 kts | 197° |
| 2026-05-06 20:14 | -38.42464 | 174.37076 | 32084 ft | 447 kts | 197° |
| 2026-05-06 20:15 | -38.45478 | 174.36115 | 32506 ft | 446 kts | 197° |
| 2026-05-06 20:15 | -38.48482 | 174.35157 | 32941 ft | 444 kts | 197° |
| 2026-05-06 20:15 | -38.51475 | 174.34201 | 33379 ft | 443 kts | 197° |
| 2026-05-06 20:15 | -38.54457 | 174.33250 | 33827 ft | 441 kts | 197° |
| 2026-05-06 20:16 | -38.57437 | 174.32301 | 34210 ft | 441 kts | 197° |
| 2026-05-06 20:16 | -38.60411 | 174.31355 | 34297 ft | 444 kts | 197° |
| 2026-05-06 20:16 | -38.66462 | 174.29422 | 34304 ft | 451 kts | 197° |
| 2026-05-06 20:17 | -38.72561 | 174.27465 | 34301 ft | 453 kts | 198° |
| 2026-05-06 20:17 | -38.78677 | 174.25498 | 34299 ft | 454 kts | 198° |
| 2026-05-06 20:18 | -38.84804 | 174.23527 | 34302 ft | 454 kts | 198° |
| 2026-05-06 20:18 | -38.90893 | 174.21569 | 34301 ft | 454 kts | 198° |
| 2026-05-06 20:19 | -38.97061 | 174.19579 | 34297 ft | 454 kts | 198° |
| 2026-05-06 20:19 | -39.03129 | 174.17542 | 34303 ft | 453 kts | 200° |
| 2026-05-06 20:20 | -39.09133 | 174.15125 | 34297 ft | 452 kts | 202° |
| 2026-05-06 20:20 | -39.15103 | 174.12570 | 34294 ft | 452 kts | 202° |
| 2026-05-06 20:21 | -39.21083 | 174.10061 | 34295 ft | 452 kts | 202° |
| 2026-05-06 20:21 | -39.27076 | 174.07607 | 34292 ft | 452 kts | 202° |
| 2026-05-06 20:22 | -39.33071 | 174.05171 | 34290 ft | 452 kts | 201° |
| 2026-05-06 20:22 | -39.39062 | 174.02720 | 34283 ft | 452 kts | 202° |
| 2026-05-06 20:23 | -39.45046 | 174.00243 | 34294 ft | 452 kts | 201° |
| 2026-05-06 20:23 | -39.51039 | 173.97763 | 34287 ft | 452 kts | 201° |
| 2026-05-06 20:24 | -39.57032 | 173.95288 | 34276 ft | 452 kts | 201° |
| 2026-05-06 20:24 | -39.63027 | 173.92807 | 34270 ft | 452 kts | 201° |
| 2026-05-06 20:25 | -39.69022 | 173.90318 | 34285 ft | 453 kts | 202° |
| 2026-05-06 20:25 | -39.75030 | 173.87824 | 34264 ft | 454 kts | 202° |
| 2026-05-06 20:26 | -39.81049 | 173.85317 | 34260 ft | 455 kts | 202° |
| 2026-05-06 20:26 | -39.87040 | 173.82817 | 34272 ft | 455 kts | 202° |
| 2026-05-06 20:27 | -39.93071 | 173.80306 | 34267 ft | 455 kts | 202° |
| 2026-05-06 20:27 | -39.99101 | 173.77784 | 34262 ft | 455 kts | 202° |
| 2026-05-06 20:28 | -40.05134 | 173.75255 | 34257 ft | 456 kts | 202° |
| 2026-05-06 20:28 | -40.11171 | 173.72717 | 34277 ft | 456 kts | 202° |
| 2026-05-06 20:29 | -40.17208 | 173.70163 | 34269 ft | 456 kts | 202° |
| 2026-05-06 20:29 | -40.23250 | 173.67615 | 34263 ft | 456 kts | 202° |
| 2026-05-06 20:30 | -40.32309 | 173.63772 | 34272 ft | 456 kts | 202° |
| 2026-05-06 20:31 | -40.38353 | 173.61214 | 34267 ft | 456 kts | 202° |
| 2026-05-06 20:31 | -40.44389 | 173.58662 | 34257 ft | 456 kts | 202° |
| 2026-05-06 20:32 | -40.50420 | 173.56101 | 34254 ft | 455 kts | 202° |
| 2026-05-06 20:32 | -40.56448 | 173.53531 | 34251 ft | 456 kts | 202° |
| 2026-05-06 20:33 | -40.62481 | 173.50947 | 34261 ft | 457 kts | 203° |
| 2026-05-06 20:33 | -40.68525 | 173.48356 | 34251 ft | 457 kts | 203° |
| 2026-05-06 20:34 | -40.74539 | 173.45788 | 34241 ft | 458 kts | 203° |
| 2026-05-06 20:34 | -40.80598 | 173.43194 | 34240 ft | 458 kts | 203° |
| 2026-05-06 20:35 | -40.86663 | 173.40585 | 34235 ft | 458 kts | 203° |
| 2026-05-06 20:35 | -40.92724 | 173.37967 | 34233 ft | 458 kts | 203° |
| 2026-05-06 20:36 | -40.98793 | 173.35342 | 34247 ft | 460 kts | 203° |
| 2026-05-06 20:36 | -41.04877 | 173.32709 | 34235 ft | 460 kts | 203° |
| 2026-05-06 20:37 | -41.10968 | 173.30075 | 34235 ft | 461 kts | 203° |
| 2026-05-06 20:37 | -41.17064 | 173.27435 | 34247 ft | 461 kts | 203° |
| 2026-05-06 20:38 | -41.23170 | 173.24780 | 34224 ft | 462 kts | 203° |
| 2026-05-06 20:38 | -41.29267 | 173.22118 | 34225 ft | 462 kts | 203° |
| 2026-05-06 20:39 | -41.35417 | 173.19566 | 34231 ft | 464 kts | 201° |
| 2026-05-06 20:39 | -41.41633 | 173.17242 | 34230 ft | 464 kts | 200° |
| 2026-05-06 20:40 | -41.47860 | 173.14935 | 34246 ft | 464 kts | 201° |
| 2026-05-06 20:40 | -41.54073 | 173.12564 | 34234 ft | 465 kts | 201° |
| 2026-05-06 20:41 | -41.60282 | 173.10156 | 34238 ft | 465 kts | 201° |
| 2026-05-06 20:41 | -41.65456 | 173.08147 | 34220 ft | 466 kts | 201° |
| 2026-05-06 20:42 | -41.71685 | 173.05731 | 34210 ft | 466 kts | 201° |
| 2026-05-06 20:42 | -41.77927 | 173.03319 | 34208 ft | 467 kts | 201° |
| 2026-05-06 20:43 | -41.84175 | 173.00892 | 34189 ft | 468 kts | 201° |
| 2026-05-06 20:43 | -41.90428 | 172.98446 | 34180 ft | 468 kts | 201° |
| 2026-05-06 20:44 | -41.96693 | 172.96003 | 34184 ft | 469 kts | 201° |
| 2026-05-06 20:44 | -42.02958 | 172.93556 | 34180 ft | 469 kts | 201° |
| 2026-05-06 20:45 | -42.09225 | 172.91101 | 34151 ft | 469 kts | 201° |
| 2026-05-06 20:45 | -42.15498 | 172.88639 | 34128 ft | 470 kts | 201° |
| 2026-05-06 20:46 | -42.21781 | 172.86168 | 34140 ft | 471 kts | 202° |
| 2026-05-06 20:46 | -42.24930 | 172.84931 | 33898 ft | 472 kts | 201° |
| 2026-05-06 20:46 | -42.28081 | 172.83693 | 33617 ft | 471 kts | 201° |
| 2026-05-06 20:46 | -42.31237 | 172.82447 | 33330 ft | 472 kts | 201° |
| 2026-05-06 20:47 | -42.34388 | 172.81200 | 33039 ft | 473 kts | 201° |
| 2026-05-06 20:47 | -42.37517 | 172.79961 | 32040 ft | 477 kts | 201° |
| 2026-05-06 20:47 | -42.40714 | 172.78690 | 31067 ft | 480 kts | 201° |
| 2026-05-06 20:47 | -42.43925 | 172.77415 | 30084 ft | 482 kts | 201° |
| 2026-05-06 20:48 | -42.47204 | 172.76115 | 28853 ft | 486 kts | 201° |
| 2026-05-06 20:48 | -42.50412 | 172.74844 | 27730 ft | 487 kts | 201° |
| 2026-05-06 20:48 | -42.53672 | 172.73552 | 26523 ft | 490 kts | 201° |
| 2026-05-06 20:48 | -42.57002 | 172.72227 | 25236 ft | 494 kts | 201° |
| 2026-05-06 20:49 | -42.60265 | 172.70926 | 24026 ft | 497 kts | 201° |
| 2026-05-06 20:49 | -42.63631 | 172.69583 | 22710 ft | 498 kts | 200° |
| 2026-05-06 20:49 | -42.66886 | 172.68288 | 21804 ft | 490 kts | 200° |
| 2026-05-06 20:49 | -42.70135 | 172.66993 | 20825 ft | 484 kts | 200° |
| 2026-05-06 20:50 | -42.73347 | 172.65710 | 19947 ft | 478 kts | 200° |
| 2026-05-06 20:50 | -42.76520 | 172.64442 | 19010 ft | 474 kts | 200° |
| 2026-05-06 20:50 | -42.79649 | 172.63185 | 18275 ft | 465 kts | 200° |
| 2026-05-06 20:50 | -42.82743 | 172.61935 | 17273 ft | 462 kts | 199° |
| 2026-05-06 20:51 | -42.85806 | 172.60700 | 16370 ft | 456 kts | 199° |
| 2026-05-06 20:51 | -42.88837 | 172.59474 | 15514 ft | 451 kts | 199° |
| 2026-05-06 20:51 | -42.91824 | 172.58254 | 14730 ft | 446 kts | 199° |
| 2026-05-06 20:51 | -42.94776 | 172.57041 | 13982 ft | 441 kts | 198° |
| 2026-05-06 20:52 | -42.97697 | 172.55845 | 13213 ft | 436 kts | 198° |
| 2026-05-06 20:52 | -43.00582 | 172.54668 | 12328 ft | 427 kts | 199° |
| 2026-05-06 20:52 | -43.03433 | 172.53502 | 11239 ft | 428 kts | 199° |
| 2026-05-06 20:52 | -43.06184 | 172.52382 | 10853 ft | 397 kts | 199° |
| 2026-05-06 20:53 | -43.08729 | 172.51355 | 10627 ft | 366 kts | 199° |
| 2026-05-06 20:53 | -43.11076 | 172.50407 | 10494 ft | 338 kts | 199° |
| 2026-05-06 20:53 | -43.13264 | 172.49521 | 10254 ft | 320 kts | 200° |
| 2026-05-06 20:53 | -43.15377 | 172.48654 | 10011 ft | 314 kts | 200° |
| 2026-05-06 20:54 | -43.17449 | 172.47799 | 9856 ft | 309 kts | 200° |
| 2026-05-06 20:54 | -43.19501 | 172.46952 | 9727 ft | 307 kts | 200° |
| 2026-05-06 20:54 | -43.21538 | 172.46104 | 9594 ft | 305 kts | 200° |
| 2026-05-06 20:54 | -43.23564 | 172.45260 | 9465 ft | 305 kts | 200° |
| 2026-05-06 20:55 | -43.25592 | 172.44423 | 9342 ft | 304 kts | 200° |
| 2026-05-06 20:55 | -43.27622 | 172.43587 | 9197 ft | 304 kts | 200° |
| 2026-05-06 20:55 | -43.29645 | 172.42751 | 9064 ft | 304 kts | 200° |
| 2026-05-06 20:55 | -43.31682 | 172.41912 | 8604 ft | 308 kts | 201° |
| 2026-05-06 20:56 | -43.33735 | 172.41069 | 8155 ft | 310 kts | 202° |
| 2026-05-06 20:56 | -43.35802 | 172.40217 | 7831 ft | 309 kts | 202° |
| 2026-05-06 20:56 | -43.37860 | 172.39369 | 7454 ft | 309 kts | 203° |
| 2026-05-06 20:56 | -43.39918 | 172.38519 | 7084 ft | 309 kts | 203° |
| 2026-05-06 20:57 | -43.41995 | 172.37748 | 6749 ft | 308 kts | 201° |
| 2026-05-06 20:57 | -43.44071 | 172.37064 | 6164 ft | 307 kts | 200° |
| 2026-05-06 20:57 | -43.46147 | 172.36419 | 5549 ft | 305 kts | 199° |
| 2026-05-06 20:57 | -43.48180 | 172.35797 | 4966 ft | 302 kts | 199° |
| 2026-05-06 20:58 | -43.50222 | 172.35165 | 4427 ft | 296 kts | 199° |
| 2026-05-06 20:58 | -43.52192 | 172.34551 | 4253 ft | 276 kts | 199° |
| 2026-05-06 20:58 | -43.54005 | 172.34196 | 4133 ft | 262 kts | 182° |
| 2026-05-06 20:58 | -43.55774 | 172.34699 | 4012 ft | 262 kts | 158° |
| 2026-05-06 20:59 | -43.57292 | 172.36069 | 3556 ft | 260 kts | 131° |
| 2026-05-06 20:59 | -43.58443 | 172.37957 | 3145 ft | 254 kts | 119° |
| 2026-05-06 20:59 | -43.58951 | 172.40130 | 2762 ft | 228 kts | 78° |
| 2026-05-06 20:59 | -43.58461 | 172.42038 | 2427 ft | 201 kts | 44° |
| 2026-05-06 21:00 | -43.57485 | 172.43290 | 2158 ft | 186 kts | 34° |
| 2026-05-06 21:00 | -43.56531 | 172.44396 | 1930 ft | 174 kts | 34° |
| 2026-05-06 21:00 | -43.55637 | 172.45429 | 1658 ft | 160 kts | 34° |
| 2026-05-06 21:00 | -43.54817 | 172.46381 | 1443 ft | 145 kts | 34° |
| 2026-05-06 21:01 | -43.54074 | 172.47241 | 1263 ft | 134 kts | 34° |
| 2026-05-06 21:01 | -43.53363 | 172.48060 | 1075 ft | 133 kts | 34° |
| 2026-05-06 21:01 | -43.52653 | 172.48876 | 897 ft | 134 kts | 35° |
| 2026-05-06 21:01 | -43.51939 | 172.49691 | 748 ft | 133 kts | 37° |
| 2026-05-06 21:02 | -43.51229 | 172.50524 | 566 ft | 135 kts | 39° |
| 2026-05-06 21:02 | -43.50514 | 172.51341 | 388 ft | 130 kts | 39° |
| 2026-05-06 21:02 | -43.49802 | 172.52159 | 205 ft | 134 kts | 41° |
| 2026-05-06 21:02 | -43.49125 | 172.52943 | 116 ft | 114 kts | 41° |
| 2026-05-06 21:03 | -43.48642 | 172.53507 | 114 ft | 67 kts | 40° |
| 2026-05-06 21:03 | -43.48499 | 172.53733 | 108 ft | 15 kts | 78° |
| 2026-05-06 21:03 | -43.48472 | 172.53855 | 106 ft | 13 kts | 71° |
| 2026-05-06 21:03 | -43.48465 | 172.53955 | 106 ft | 4 kts | 115° |
| 2026-05-06 21:04 | -43.48475 | 172.53976 | 107 ft | 1 kts | 124° |
| 2026-05-06 21:04 | -43.48483 | 172.53984 | 108 ft | 2 kts | 149° |
| 2026-05-06 21:04 | -43.48500 | 172.53986 | 108 ft | 3 kts | 180° |
| 2026-05-06 21:04 | -43.48537 | 172.53959 | 107 ft | 8 kts | 217° |
| 2026-05-06 21:05 | -43.48583 | 172.53906 | 108 ft | 10 kts | 220° |
| 2026-05-06 21:05 | -43.48639 | 172.53841 | 107 ft | 12 kts | 220° |
| 2026-05-06 21:05 | -43.48691 | 172.53828 | 108 ft | 6 kts | 137° |
| 2026-05-06 21:05 | -43.48715 | 172.53872 | 108 ft | 5 kts | 129° |
| 2026-05-06 21:06 | -43.48731 | 172.53898 | 108 ft | 1 kts | 131° |
| 2026-05-06 21:06 | -43.48731 | 172.53899 | 108 ft | 0 kts | 131° |